»·PEaware :: N29931 KSTS-KFOT

N29931 :: KSTS-KFOT

FLIGHT INFORMATION

Flight Status: Arrived
Operator: Privately registered:
United States
More flights under this callsign
Pilot: Jan K. (187)
Aircraft: ROCKWELL T-6 TEXAN
(T6)
More flights by this aircraft type
Origin: KSTS Sonoma Co
United States
Destination: KFOT Rohnerville
United States
More flights between these airports :: More routes between these airports
Route:
File this flight plan on PilotEdge
Remarks:
Altitude:
(Current/Filed)
4,500ft
Speed:
(Current/Filed)
140kts
Departed: 08-Dec-17 02:57 PM
Arrived: 08-Dec-17 04:22 PM
Distance/Time
Traveled:
137nm/1:25
Distance/Time
To Go:
Arrived

Flight Plot

Page will automatically refresh every two minutes.

Flight plan parsing failed; only flown route is shown


Map Options




Map Legend


Flown Route
Filed Route
Departure Airport
Arrival Airport
Navaid (VOR, NDB)
Fix

Horizontal Profiles

Position Reports

Time Latitude Longitude Heading Altitude Ground
Speed
08-Dec-17 14:38 38.505638 -122.804107 203 130ft 0kts
08-Dec-17 14:39 38.505637 -122.804107 203 130ft 0kts
08-Dec-17 14:40 38.505636 -122.804108 203 130ft 0kts
08-Dec-17 14:42 38.505635 -122.804108 204 130ft 0kts
08-Dec-17 14:43 38.505634 -122.804109 204 130ft 0kts
08-Dec-17 14:44 38.505633 -122.804110 205 130ft 0kts
08-Dec-17 14:45 38.505632 -122.804110 205 130ft 0kts
08-Dec-17 14:46 38.505631 -122.804111 206 130ft 0kts
08-Dec-17 14:47 38.505631 -122.804111 206 130ft 0kts
08-Dec-17 14:48 38.505631 -122.804111 206 130ft 0kts
08-Dec-17 14:49 38.505631 -122.804111 206 130ft 0kts
08-Dec-17 14:50 38.505631 -122.804111 206 130ft 0kts
08-Dec-17 14:51 38.505631 -122.804111 206 130ft 0kts
08-Dec-17 14:52 38.505631 -122.804111 206 130ft 0kts
08-Dec-17 14:53 38.505630 -122.804111 206 130ft 0kts
08-Dec-17 14:54 38.505629 -122.804112 207 130ft 0kts
08-Dec-17 14:55 38.505627 -122.804113 208 130ft 0kts
08-Dec-17 14:56 38.505626 -122.804115 209 130ft 0kts
08-Dec-17 14:57 38.505566 -122.804681 345 130ft 0kts
08-Dec-17 14:58 38.505568 -122.804681 346 130ft 0kts
08-Dec-17 14:59 38.505758 -122.804831 290 130ft 6kts
08-Dec-17 15:00 38.503039 -122.804540 159 130ft 6kts
08-Dec-17 15:01 38.502739 -122.804788 251 130ft 0kts
08-Dec-17 15:02 38.502692 -122.805727 312 130ft 10kts
08-Dec-17 15:03 38.518435 -122.814250 319 500ft 106kts
08-Dec-17 15:04 38.508513 -122.847861 231 1295ft 109kts
08-Dec-17 15:05 38.489421 -122.879397 234 2020ft 112kts
08-Dec-17 15:06 38.485050 -122.917947 285 2916ft 114kts
08-Dec-17 15:07 38.492952 -122.959216 283 3684ft 120kts
08-Dec-17 15:08 38.500566 -123.000619 283 4383ft 118kts
08-Dec-17 15:09 38.508898 -123.045684 283 4470ft 129kts
08-Dec-17 15:10 38.516948 -123.089331 283 4509ft 126kts
08-Dec-17 15:11 38.525024 -123.132942 283 4510ft 126kts
08-Dec-17 15:12 38.533144 -123.176725 283 4505ft 126kts
08-Dec-17 15:13 38.541343 -123.220982 282 4522ft 132kts
08-Dec-17 15:14 38.549972 -123.267555 282 4440ft 135kts
08-Dec-17 15:15 38.559533 -123.312750 291 4512ft 133kts
08-Dec-17 15:15 38.572549 -123.349700 297 4494ft 135kts
08-Dec-17 15:16 38.593932 -123.387396 306 4469ft 130kts
08-Dec-17 15:17 38.617006 -123.422395 312 4493ft 128kts
08-Dec-17 15:19 38.645621 -123.461167 315 4494ft 128kts
08-Dec-17 15:20 38.672327 -123.491878 317 4496ft 128kts
08-Dec-17 15:21 38.699392 -123.521739 322 4556ft 122kts
08-Dec-17 15:21 38.722427 -123.544945 320 4512ft 130kts
08-Dec-17 15:22 38.750686 -123.573649 320 4506ft 128kts
08-Dec-17 15:23 38.778806 -123.601968 320 4506ft 128kts
08-Dec-17 15:24 38.806939 -123.630226 320 4507ft 128kts
08-Dec-17 15:25 38.835101 -123.658697 320 4508ft 128kts
08-Dec-17 15:26 38.862977 -123.686436 320 4502ft 125kts
08-Dec-17 15:27 38.890607 -123.713999 320 4502ft 126kts
08-Dec-17 15:28 38.919706 -123.739174 331 4503ft 126kts
08-Dec-17 15:29 38.951790 -123.757583 341 4503ft 127kts
08-Dec-17 15:30 38.986131 -123.768727 347 4503ft 127kts
08-Dec-17 15:31 39.020824 -123.777872 347 4504ft 127kts
08-Dec-17 15:32 39.055514 -123.787013 347 4504ft 127kts
08-Dec-17 15:33 39.090342 -123.796101 347 4505ft 127kts
08-Dec-17 15:34 39.125047 -123.805199 347 4508ft 127kts
08-Dec-17 15:35 39.159718 -123.814267 347 4510ft 127kts
08-Dec-17 15:36 39.194659 -123.823479 347 4510ft 128kts
08-Dec-17 15:37 39.229486 -123.832625 347 4509ft 128kts
08-Dec-17 15:38 39.264438 -123.841755 347 4510ft 128kts
08-Dec-17 15:39 39.299557 -123.850923 347 4510ft 128kts
08-Dec-17 15:40 39.334559 -123.860085 347 4510ft 128kts
08-Dec-17 15:41 39.369740 -123.869337 346 4510ft 129kts
08-Dec-17 15:42 39.404939 -123.878608 346 4510ft 129kts
08-Dec-17 15:43 39.440128 -123.888029 346 4511ft 129kts
08-Dec-17 15:44 39.475442 -123.897528 346 4511ft 129kts
08-Dec-17 15:45 39.510601 -123.907221 346 4511ft 129kts
08-Dec-17 15:46 39.545822 -123.917095 346 4510ft 130kts
08-Dec-17 15:47 39.581320 -123.927037 346 4511ft 130kts
08-Dec-17 15:48 39.616731 -123.936926 346 4511ft 130kts
08-Dec-17 15:49 39.652260 -123.946875 346 4511ft 130kts
08-Dec-17 15:50 39.687653 -123.956746 346 4511ft 130kts
08-Dec-17 15:51 39.723032 -123.966610 346 4511ft 130kts
08-Dec-17 15:52 39.758674 -123.976527 346 4511ft 131kts
08-Dec-17 15:53 39.794322 -123.986454 346 4511ft 131kts
08-Dec-17 15:54 39.829662 -123.997906 343 4511ft 131kts
08-Dec-17 15:55 39.864981 -124.010122 343 4511ft 131kts
08-Dec-17 15:56 39.900155 -124.022383 343 4512ft 131kts
08-Dec-17 15:57 39.935318 -124.034731 343 4511ft 131kts
08-Dec-17 15:58 39.970624 -124.047037 343 4512ft 131kts
08-Dec-17 15:59 40.005274 -124.061220 336 4512ft 130kts
08-Dec-17 16:00 40.035587 -124.086441 320 4512ft 129kts
08-Dec-17 16:01 40.064219 -124.114656 310 4509ft 128kts
08-Dec-17 16:02 40.088618 -124.148485 310 4513ft 128kts
08-Dec-17 16:03 40.113230 -124.182341 310 4513ft 128kts
08-Dec-17 16:04 40.137800 -124.216083 310 4513ft 128kts
08-Dec-17 16:05 40.162400 -124.249823 310 4513ft 128kts
08-Dec-17 16:06 40.187137 -124.283663 310 4513ft 128kts
08-Dec-17 16:07 40.211762 -124.317453 310 4513ft 128kts
08-Dec-17 16:08 40.236550 -124.351305 310 4513ft 128kts
08-Dec-17 16:09 40.266438 -124.377403 332 4512ft 131kts
08-Dec-17 16:10 40.301261 -124.391885 346 4513ft 132kts
08-Dec-17 16:11 40.337406 -124.401627 346 4513ft 132kts
08-Dec-17 16:12 40.372938 -124.411106 346 4513ft 132kts
08-Dec-17 16:13 40.408935 -124.420867 346 4513ft 132kts
08-Dec-17 16:14 40.445108 -124.430832 346 4513ft 132kts
08-Dec-17 16:15 40.481540 -124.436654 7 4511ft 133kts
08-Dec-17 16:16 40.518508 -124.429536 7 4513ft 134kts
08-Dec-17 16:17 40.554558 -124.419929 13 4513ft 134kts
08-Dec-17 16:18 40.586363 -124.396934 52 4288ft 137kts
08-Dec-17 16:19 40.611761 -124.360418 53 3922ft 132kts
08-Dec-17 16:20 40.637020 -124.325703 48 3561ft 132kts
08-Dec-17 16:21 40.653259 -124.285820 118 3381ft 132kts
08-Dec-17 16:22 40.632247 -124.246753 131 3022ft 127kts
08-Dec-17 16:23 40.610377 -124.210747 128 2222ft 122kts
08-Dec-17 16:24 40.585962 -124.181759 141 1575ft 115kts
08-Dec-17 16:25 40.566530 -124.155315 123 735ft 82kts
08-Dec-17 16:26 40.553950 -124.132803 124 360ft 61kts
08-Dec-17 16:27 40.551061 -124.126692 354 360ft 7kts
08-Dec-17 16:28 40.552975 -124.129788 307 360ft 11kts
08-Dec-17 16:29 40.554198 -124.131898 315 360ft 0kts
08-Dec-17 16:30 40.554802 -124.131874 122 360ft 0kts
08-Dec-17 16:31 40.554782 -124.131835 125 360ft 0kts
08-Dec-17 16:32 40.554780 -124.131832 126 360ft 0kts
08-Dec-17 16:33 40.554780 -124.131832 126 360ft 0kts
08-Dec-17 16:34 40.554780 -124.131832 126 360ft 0kts
08-Dec-17 16:35 40.554780 -124.131832 126 360ft 0kts
08-Dec-17 16:36 40.554780 -124.131832 126 360ft 0kts
08-Dec-17 16:37 40.554780 -124.131832 126 360ft 0kts
08-Dec-17 16:38 40.554780 -124.131832 126 360ft 0kts
08-Dec-17 16:39 40.554780 -124.131832 126 360ft 0kts
08-Dec-17 16:40 40.554780 -124.131832 126 360ft 0kts
08-Dec-17 16:41 40.554780 -124.131832 126 360ft 0kts

Navigation Log

Ident Type
Flight plan parsing failed, navigation log unavailable